This is the latest recevied weather packets stored in our database for station/object DO2DV-13. If no packets are shown the sender has not sent any weather packets the latest 10 day(s).
| Time | Temp. | Humidity | Pressure | Rain* | Wind** | Luminosity | Snow |
|---|---|---|---|---|---|---|---|
| 1777591859 | 12.22° C | 33% | 1026 hPa | 0 mm | - | 0 W/m² | - |
| 1777582259 | 13.89° C | 30% | 1025.3 hPa | 0 mm | - | 0 W/m² | - |
| 1777580467 | 14.44° C | 30% | 1025.1 hPa | 0 mm | - | 0 W/m² | - |
| 1777578035 | 15° C | 29% | 1025 hPa | 0 mm | - | 0 W/m² | - |
| 1777575688 | 15° C | 29% | 1025 hPa | 0 mm | - | 0 W/m² | - |
| 1777573256 | 15.56° C | 28% | 1024.7 hPa | 0 mm | - | 11 W/m² | - |
| 1777572675 | 15.56° C | 28% | 1024.5 hPa | 0 mm | - | 15 W/m² | - |
| 1777567255 | 17.78° C | 25% | 1024.7 hPa | 0 mm | - | 97 W/m² | - |
| 1777562436 | 17.78° C | 24% | 1025 hPa | 0 mm | - | 298 W/m² | - |
| 1777552856 | 16.11° C | 28% | 1025.9 hPa | 0 mm | - | 665 W/m² | - |
| 1777552259 | 16.11° C | 29% | 1025.9 hPa | 0 mm | - | 705 W/m² | - |
| 1777551684 | 15.56° C | 30% | 1026 hPa | 0 mm | - | 614 W/m² | - |
| 1777551044 | 15.56° C | 29% | 1026.1 hPa | 0 mm | - | 601 W/m² | - |
| 1777547480 | 15° C | 32% | 1026.1 hPa | 0 mm | - | 600 W/m² | - |
| 1777543236 | 13.33° C | 36% | 1026.3 hPa | 0 mm | - | 686 W/m² | - |
| 1777540868 | 12.22° C | 38% | 1026.5 hPa | 0 mm | - | 681 W/m² | - |
| 1777537860 | 11.11° C | 39% | 1026.6 hPa | 0 mm | - | 581 W/m² | - |
| 1777534836 | 10° C | 40% | 1026.5 hPa | 0 mm | - | 386 W/m² | - |
| 1777532421 | 9.44° C | 41% | 1026.7 hPa | 0 mm | - | 224 W/m² | - |
| 1777530660 | 8.89° C | 42% | 1026.5 hPa | 0 mm | - | 137 W/m² | - |
| 1777527076 | 8.33° C | 42% | 1026.2 hPa | 0 mm | - | 35 W/m² | - |
| 1777524069 | 7.22° C | 44% | 1025.8 hPa | 0 mm | - | 12 W/m² | - |
| 1777521060 | 7.22° C | 44% | 1025.8 hPa | 0 mm | - | 0 W/m² | - |
| 1777518052 | 7.78° C | 44% | 1026 hPa | 0 mm | - | 0 W/m² | - |
| 1777516835 | 8.33° C | 42% | 1025.9 hPa | 0 mm | - | 0 W/m² | - |
* Rain latest hour (hover to see other rain measurements)
** Current wind speed in m/s (hover to see current wind gust speed)